sensor_id;sensor_type;location;lat;lon;timestamp;P1;durP1;ratioP1;P2;durP2;ratioP2
84757;SDS011;74981;52.476;16.656;2024-02-16T00:03:55;30.00;;;14.70;;
84757;SDS011;74981;52.476;16.656;2024-02-16T00:08:57;30.10;;;15.00;;
84757;SDS011;74981;52.476;16.656;2024-02-16T00:14:00;31.20;;;16.00;;
84757;SDS011;74981;52.476;16.656;2024-02-16T00:19:02;23.60;;;14.90;;
84757;SDS011;74981;52.476;16.656;2024-02-16T00:24:05;28.60;;;14.20;;
84757;SDS011;74981;52.476;16.656;2024-02-16T00:29:07;28.00;;;14.50;;
84757;SDS011;74981;52.476;16.656;2024-02-16T00:34:09;29.40;;;15.70;;
84757;SDS011;74981;52.476;16.656;2024-02-16T00:39:12;25.20;;;14.70;;
84757;SDS011;74981;52.476;16.656;2024-02-16T00:44:14;25.00;;;15.10;;
84757;SDS011;74981;52.476;16.656;2024-02-16T00:49:16;22.90;;;13.20;;
84757;SDS011;74981;52.476;16.656;2024-02-16T00:54:18;25.60;;;13.40;;
84757;SDS011;74981;52.476;16.656;2024-02-16T00:59:21;26.10;;;14.40;;
84757;SDS011;74981;52.476;16.656;2024-02-16T01:04:23;24.80;;;13.60;;
84757;SDS011;74981;52.476;16.656;2024-02-16T01:09:25;24.20;;;14.40;;
84757;SDS011;74981;52.476;16.656;2024-02-16T01:14:28;24.40;;;15.00;;
84757;SDS011;74981;52.476;16.656;2024-02-16T01:19:30;24.40;;;13.70;;
84757;SDS011;74981;52.476;16.656;2024-02-16T01:24:32;25.00;;;14.10;;
84757;SDS011;74981;52.476;16.656;2024-02-16T01:29:35;25.80;;;13.70;;
84757;SDS011;74981;52.476;16.656;2024-02-16T01:34:37;20.10;;;11.90;;
84757;SDS011;74981;52.476;16.656;2024-02-16T01:39:39;22.70;;;14.10;;
84757;SDS011;74981;52.476;16.656;2024-02-16T01:44:41;21.70;;;12.80;;
84757;SDS011;74981;52.476;16.656;2024-02-16T01:49:44;21.50;;;12.10;;
84757;SDS011;74981;52.476;16.656;2024-02-16T01:54:46;23.80;;;12.70;;
84757;SDS011;74981;52.476;16.656;2024-02-16T01:59:48;23.50;;;13.10;;
84757;SDS011;74981;52.476;16.656;2024-02-16T02:04:51;21.70;;;13.10;;
84757;SDS011;74981;52.476;16.656;2024-02-16T02:09:54;21.40;;;11.50;;
84757;SDS011;74981;52.476;16.656;2024-02-16T02:14:57;23.00;;;14.30;;
84757;SDS011;74981;52.476;16.656;2024-02-16T02:19:59;20.20;;;12.70;;
84757;SDS011;74981;52.476;16.656;2024-02-16T02:25:01;23.40;;;14.80;;
84757;SDS011;74981;52.476;16.656;2024-02-16T02:30:06;24.80;;;12.10;;
84757;SDS011;74981;52.476;16.656;2024-02-16T02:35:10;22.90;;;11.60;;
84757;SDS011;74981;52.476;16.656;2024-02-16T02:40:13;20.00;;;12.10;;
84757;SDS011;74981;52.476;16.656;2024-02-16T02:45:16;22.40;;;12.90;;
84757;SDS011;74981;52.476;16.656;2024-02-16T02:50:18;18.70;;;10.60;;
84757;SDS011;74981;52.476;16.656;2024-02-16T02:55:20;17.10;;;10.30;;
84757;SDS011;74981;52.476;16.656;2024-02-16T03:00:23;20.90;;;12.40;;
84757;SDS011;74981;52.476;16.656;2024-02-16T03:05:25;20.30;;;11.70;;
84757;SDS011;74981;52.476;16.656;2024-02-16T03:10:28;21.40;;;11.10;;
84757;SDS011;74981;52.476;16.656;2024-02-16T03:15:30;17.80;;;11.40;;
84757;SDS011;74981;52.476;16.656;2024-02-16T03:20:32;22.00;;;11.80;;
84757;SDS011;74981;52.476;16.656;2024-02-16T03:25:35;19.70;;;11.70;;
84757;SDS011;74981;52.476;16.656;2024-02-16T03:30:37;19.50;;;10.70;;
84757;SDS011;74981;52.476;16.656;2024-02-16T03:35:40;20.70;;;11.20;;
84757;SDS011;74981;52.476;16.656;2024-02-16T03:40:42;18.80;;;10.70;;
84757;SDS011;74981;52.476;16.656;2024-02-16T03:45:44;19.30;;;10.50;;
84757;SDS011;74981;52.476;16.656;2024-02-16T03:50:46;21.00;;;12.00;;
84757;SDS011;74981;52.476;16.656;2024-02-16T03:55:49;18.70;;;10.90;;
84757;SDS011;74981;52.476;16.656;2024-02-16T04:00:51;21.70;;;13.30;;
84757;SDS011;74981;52.476;16.656;2024-02-16T04:05:54;21.40;;;12.90;;
84757;SDS011;74981;52.476;16.656;2024-02-16T04:10:56;21.40;;;12.50;;
84757;SDS011;74981;52.476;16.656;2024-02-16T04:15:58;21.50;;;13.20;;
84757;SDS011;74981;52.476;16.656;2024-02-16T04:21:01;20.20;;;10.90;;
84757;SDS011;74981;52.476;16.656;2024-02-16T04:26:03;22.40;;;13.30;;
84757;SDS011;74981;52.476;16.656;2024-02-16T04:31:05;24.50;;;14.10;;
84757;SDS011;74981;52.476;16.656;2024-02-16T04:36:08;23.60;;;13.00;;
84757;SDS011;74981;52.476;16.656;2024-02-16T04:41:11;26.30;;;14.10;;
84757;SDS011;74981;52.476;16.656;2024-02-16T04:46:14;27.20;;;15.50;;
84757;SDS011;74981;52.476;16.656;2024-02-16T04:51:17;26.90;;;14.90;;
84757;SDS011;74981;52.476;16.656;2024-02-16T04:56:19;27.60;;;15.70;;
84757;SDS011;74981;52.476;16.656;2024-02-16T05:01:22;27.30;;;16.90;;
84757;SDS011;74981;52.476;16.656;2024-02-16T05:06:24;25.10;;;13.70;;
84757;SDS011;74981;52.476;16.656;2024-02-16T05:11:26;27.30;;;14.10;;
84757;SDS011;74981;52.476;16.656;2024-02-16T05:16:29;24.80;;;14.10;;
84757;SDS011;74981;52.476;16.656;2024-02-16T05:21:31;26.50;;;15.10;;
84757;SDS011;74981;52.476;16.656;2024-02-16T05:26:33;23.70;;;12.90;;
84757;SDS011;74981;52.476;16.656;2024-02-16T05:31:36;22.50;;;13.50;;
84757;SDS011;74981;52.476;16.656;2024-02-16T05:36:38;25.40;;;13.60;;
84757;SDS011;74981;52.476;16.656;2024-02-16T05:41:41;27.70;;;14.90;;
84757;SDS011;74981;52.476;16.656;2024-02-16T05:46:44;24.30;;;13.70;;
84757;SDS011;74981;52.476;16.656;2024-02-16T05:51:47;26.10;;;14.40;;
84757;SDS011;74981;52.476;16.656;2024-02-16T05:56:50;22.20;;;13.80;;
84757;SDS011;74981;52.476;16.656;2024-02-16T06:01:52;24.10;;;14.00;;
84757;SDS011;74981;52.476;16.656;2024-02-16T06:06:54;28.30;;;15.20;;
84757;SDS011;74981;52.476;16.656;2024-02-16T06:11:56;30.30;;;16.30;;
84757;SDS011;74981;52.476;16.656;2024-02-16T06:16:59;28.20;;;15.70;;
84757;SDS011;74981;52.476;16.656;2024-02-16T06:22:01;29.90;;;16.60;;
84757;SDS011;74981;52.476;16.656;2024-02-16T06:27:04;30.30;;;17.90;;
84757;SDS011;74981;52.476;16.656;2024-02-16T06:32:07;28.10;;;17.10;;
84757;SDS011;74981;52.476;16.656;2024-02-16T06:37:09;25.60;;;16.00;;
84757;SDS011;74981;52.476;16.656;2024-02-16T06:42:12;25.30;;;15.10;;
84757;SDS011;74981;52.476;16.656;2024-02-16T06:47:14;30.20;;;15.70;;
84757;SDS011;74981;52.476;16.656;2024-02-16T06:52:17;23.70;;;15.40;;
84757;SDS011;74981;52.476;16.656;2024-02-16T06:57:20;19.40;;;10.80;;
84757;SDS011;74981;52.476;16.656;2024-02-16T07:02:22;18.30;;;11.10;;
84757;SDS011;74981;52.476;16.656;2024-02-16T07:07:25;25.30;;;13.70;;
84757;SDS011;74981;52.476;16.656;2024-02-16T07:12:27;23.20;;;13.10;;
84757;SDS011;74981;52.476;16.656;2024-02-16T07:17:30;22.10;;;12.40;;
84757;SDS011;74981;52.476;16.656;2024-02-16T07:22:32;24.10;;;12.10;;
84757;SDS011;74981;52.476;16.656;2024-02-16T07:27:35;23.40;;;13.80;;
84757;SDS011;74981;52.476;16.656;2024-02-16T07:32:37;20.70;;;12.40;;
84757;SDS011;74981;52.476;16.656;2024-02-16T07:37:39;19.20;;;11.50;;
84757;SDS011;74981;52.476;16.656;2024-02-16T07:42:42;14.70;;;8.60;;
84757;SDS011;74981;52.476;16.656;2024-02-16T07:47:44;20.30;;;11.40;;
84757;SDS011;74981;52.476;16.656;2024-02-16T07:52:47;21.10;;;12.80;;
84757;SDS011;74981;52.476;16.656;2024-02-16T07:57:50;18.60;;;10.90;;
84757;SDS011;74981;52.476;16.656;2024-02-16T08:02:52;18.70;;;10.70;;
84757;SDS011;74981;52.476;16.656;2024-02-16T08:07:54;21.50;;;12.40;;
84757;SDS011;74981;52.476;16.656;2024-02-16T08:12:57;17.50;;;10.10;;
84757;SDS011;74981;52.476;16.656;2024-02-16T08:17:59;16.50;;;10.10;;
84757;SDS011;74981;52.476;16.656;2024-02-16T08:23:01;17.50;;;11.50;;
84757;SDS011;74981;52.476;16.656;2024-02-16T08:28:04;14.70;;;9.10;;
84757;SDS011;74981;52.476;16.656;2024-02-16T08:33:07;14.00;;;9.00;;
84757;SDS011;74981;52.476;16.656;2024-02-16T08:38:09;13.00;;;7.50;;
84757;SDS011;74981;52.476;16.656;2024-02-16T08:43:12;16.60;;;9.80;;
84757;SDS011;74981;52.476;16.656;2024-02-16T08:48:14;17.30;;;9.40;;
84757;SDS011;74981;52.476;16.656;2024-02-16T08:53:16;14.30;;;8.30;;
84757;SDS011;74981;52.476;16.656;2024-02-16T08:58:19;14.20;;;9.00;;
84757;SDS011;74981;52.476;16.656;2024-02-16T09:03:21;13.40;;;9.40;;
84757;SDS011;74981;52.476;16.656;2024-02-16T09:08:23;17.20;;;10.30;;
84757;SDS011;74981;52.476;16.656;2024-02-16T09:13:25;18.10;;;9.20;;
84757;SDS011;74981;52.476;16.656;2024-02-16T09:18:28;15.00;;;8.60;;
84757;SDS011;74981;52.476;16.656;2024-02-16T09:23:31;13.80;;;8.70;;
84757;SDS011;74981;52.476;16.656;2024-02-16T09:28:33;17.40;;;10.90;;
84757;SDS011;74981;52.476;16.656;2024-02-16T09:33:39;16.00;;;9.40;;
84757;SDS011;74981;52.476;16.656;2024-02-16T09:38:42;15.40;;;9.50;;
84757;SDS011;74981;52.476;16.656;2024-02-16T09:43:44;15.10;;;8.70;;
84757;SDS011;74981;52.476;16.656;2024-02-16T09:48:46;13.60;;;9.00;;
84757;SDS011;74981;52.476;16.656;2024-02-16T09:53:50;15.10;;;9.00;;
84757;SDS011;74981;52.476;16.656;2024-02-16T09:58:53;16.10;;;9.90;;
84757;SDS011;74981;52.476;16.656;2024-02-16T10:04:00;14.50;;;9.00;;
84757;SDS011;74981;52.476;16.656;2024-02-16T10:09:25;14.70;;;8.60;;
84757;SDS011;74981;52.476;16.656;2024-02-16T10:14:28;15.20;;;8.90;;
84757;SDS011;74981;52.476;16.656;2024-02-16T10:19:30;16.00;;;9.80;;
84757;SDS011;74981;52.476;16.656;2024-02-16T10:24:33;14.60;;;10.00;;
84757;SDS011;74981;52.476;16.656;2024-02-16T10:29:35;13.90;;;9.40;;
84757;SDS011;74981;52.476;16.656;2024-02-16T10:34:40;12.90;;;7.80;;
84757;SDS011;74981;52.476;16.656;2024-02-16T10:39:44;16.20;;;9.70;;
84757;SDS011;74981;52.476;16.656;2024-02-16T10:44:47;17.30;;;11.10;;
84757;SDS011;74981;52.476;16.656;2024-02-16T10:49:51;13.70;;;9.30;;
84757;SDS011;74981;52.476;16.656;2024-02-16T10:54:54;15.60;;;8.60;;
84757;SDS011;74981;52.476;16.656;2024-02-16T10:59:58;15.20;;;9.80;;
84757;SDS011;74981;52.476;16.656;2024-02-16T11:05:00;14.40;;;8.90;;
84757;SDS011;74981;52.476;16.656;2024-02-16T11:10:12;13.50;;;8.40;;
84757;SDS011;74981;52.476;16.656;2024-02-16T11:15:14;14.50;;;8.20;;
84757;SDS011;74981;52.476;16.656;2024-02-16T11:20:17;15.60;;;8.30;;
84757;SDS011;74981;52.476;16.656;2024-02-16T11:25:19;14.60;;;10.40;;
84757;SDS011;74981;52.476;16.656;2024-02-16T11:30:42;14.00;;;7.90;;
84757;SDS011;74981;52.476;16.656;2024-02-16T11:35:52;12.00;;;8.10;;
84757;SDS011;74981;52.476;16.656;2024-02-16T11:40:56;13.20;;;7.90;;
84757;SDS011;74981;52.476;16.656;2024-02-16T11:45:59;11.50;;;6.30;;
84757;SDS011;74981;52.476;16.656;2024-02-16T11:56:24;13.30;;;7.70;;
84757;SDS011;74981;52.476;16.656;2024-02-16T12:01:27;10.20;;;6.80;;
84757;SDS011;74981;52.476;16.656;2024-02-16T12:06:30;13.90;;;8.30;;
84757;SDS011;74981;52.476;16.656;2024-02-16T12:11:32;15.60;;;8.10;;
84757;SDS011;74981;52.476;16.656;2024-02-16T12:16:34;13.70;;;9.40;;
84757;SDS011;74981;52.476;16.656;2024-02-16T12:21:38;12.20;;;7.50;;
84757;SDS011;74981;52.476;16.656;2024-02-16T12:26:41;13.30;;;8.20;;
84757;SDS011;74981;52.476;16.656;2024-02-16T12:31:44;13.10;;;7.10;;
84757;SDS011;74981;52.476;16.656;2024-02-16T12:36:47;12.60;;;8.70;;
84757;SDS011;74981;52.476;16.656;2024-02-16T12:41:50;11.80;;;7.20;;
84757;SDS011;74981;52.476;16.656;2024-02-16T12:46:53;13.10;;;8.50;;
84757;SDS011;74981;52.476;16.656;2024-02-16T12:51:55;12.30;;;7.70;;
84757;SDS011;74981;52.476;16.656;2024-02-16T12:56:57;14.70;;;7.60;;
84757;SDS011;74981;52.476;16.656;2024-02-16T13:02:00;12.50;;;7.30;;
84757;SDS011;74981;52.476;16.656;2024-02-16T13:07:03;14.50;;;7.60;;
84757;SDS011;74981;52.476;16.656;2024-02-16T13:12:06;11.40;;;7.40;;
84757;SDS011;74981;52.476;16.656;2024-02-16T13:17:08;9.90;;;6.60;;
84757;SDS011;74981;52.476;16.656;2024-02-16T13:22:11;11.30;;;7.10;;
84757;SDS011;74981;52.476;16.656;2024-02-16T13:27:13;10.10;;;6.50;;
84757;SDS011;74981;52.476;16.656;2024-02-16T13:32:15;15.30;;;8.60;;
84757;SDS011;74981;52.476;16.656;2024-02-16T13:37:18;12.50;;;7.10;;
84757;SDS011;74981;52.476;16.656;2024-02-16T13:42:20;13.50;;;8.80;;
84757;SDS011;74981;52.476;16.656;2024-02-16T13:47:22;12.50;;;8.40;;
84757;SDS011;74981;52.476;16.656;2024-02-16T13:52:25;12.70;;;7.80;;
84757;SDS011;74981;52.476;16.656;2024-02-16T13:57:27;14.60;;;8.90;;
84757;SDS011;74981;52.476;16.656;2024-02-16T14:02:30;14.00;;;8.70;;
84757;SDS011;74981;52.476;16.656;2024-02-16T14:07:33;10.90;;;7.90;;
84757;SDS011;74981;52.476;16.656;2024-02-16T14:12:35;14.20;;;8.60;;
84757;SDS011;74981;52.476;16.656;2024-02-16T14:17:37;15.50;;;9.20;;
84757;SDS011;74981;52.476;16.656;2024-02-16T14:22:39;11.80;;;6.80;;
84757;SDS011;74981;52.476;16.656;2024-02-16T14:27:41;11.60;;;6.90;;
84757;SDS011;74981;52.476;16.656;2024-02-16T14:32:44;11.10;;;6.80;;
84757;SDS011;74981;52.476;16.656;2024-02-16T14:37:46;15.10;;;8.60;;
84757;SDS011;74981;52.476;16.656;2024-02-16T14:42:48;13.10;;;7.80;;
84757;SDS011;74981;52.476;16.656;2024-02-16T14:47:51;11.40;;;6.60;;
84757;SDS011;74981;52.476;16.656;2024-02-16T14:52:53;10.20;;;6.40;;
84757;SDS011;74981;52.476;16.656;2024-02-16T14:57:55;11.70;;;7.10;;
84757;SDS011;74981;52.476;16.656;2024-02-16T15:02:57;12.70;;;7.10;;
84757;SDS011;74981;52.476;16.656;2024-02-16T15:08:00;11.70;;;6.60;;
84757;SDS011;74981;52.476;16.656;2024-02-16T15:13:03;12.00;;;6.80;;
84757;SDS011;74981;52.476;16.656;2024-02-16T15:18:06;12.20;;;8.30;;
84757;SDS011;74981;52.476;16.656;2024-02-16T15:23:08;12.40;;;7.40;;
84757;SDS011;74981;52.476;16.656;2024-02-16T15:28:12;13.40;;;7.40;;
84757;SDS011;74981;52.476;16.656;2024-02-16T15:33:14;16.10;;;8.20;;
84757;SDS011;74981;52.476;16.656;2024-02-16T15:38:17;16.50;;;8.30;;
84757;SDS011;74981;52.476;16.656;2024-02-16T15:43:19;18.80;;;9.80;;
84757;SDS011;74981;52.476;16.656;2024-02-16T15:48:21;18.90;;;10.10;;
84757;SDS011;74981;52.476;16.656;2024-02-16T15:53:24;15.70;;;8.00;;
84757;SDS011;74981;52.476;16.656;2024-02-16T15:58:27;13.90;;;8.10;;
84757;SDS011;74981;52.476;16.656;2024-02-16T16:03:29;14.30;;;7.60;;
84757;SDS011;74981;52.476;16.656;2024-02-16T16:08:31;11.30;;;7.60;;
84757;SDS011;74981;52.476;16.656;2024-02-16T16:13:34;12.10;;;6.80;;
84757;SDS011;74981;52.476;16.656;2024-02-16T16:18:36;13.80;;;7.90;;
84757;SDS011;74981;52.476;16.656;2024-02-16T16:23:39;13.80;;;8.00;;
84757;SDS011;74981;52.476;16.656;2024-02-16T16:28:41;19.80;;;10.40;;
84757;SDS011;74981;52.476;16.656;2024-02-16T16:33:44;63.00;;;21.10;;
84757;SDS011;74981;52.476;16.656;2024-02-16T16:38:46;83.40;;;25.20;;
84757;SDS011;74981;52.476;16.656;2024-02-16T16:43:48;46.30;;;16.70;;
84757;SDS011;74981;52.476;16.656;2024-02-16T16:48:51;36.20;;;15.10;;
84757;SDS011;74981;52.476;16.656;2024-02-16T16:53:53;18.50;;;10.00;;
84757;SDS011;74981;52.476;16.656;2024-02-16T16:58:55;20.10;;;11.10;;
84757;SDS011;74981;52.476;16.656;2024-02-16T17:03:58;27.20;;;15.60;;
84757;SDS011;74981;52.476;16.656;2024-02-16T17:09:01;29.30;;;16.00;;
84757;SDS011;74981;52.476;16.656;2024-02-16T17:14:03;23.50;;;13.10;;
84757;SDS011;74981;52.476;16.656;2024-02-16T17:19:05;24.20;;;13.10;;
84757;SDS011;74981;52.476;16.656;2024-02-16T17:24:08;24.30;;;12.20;;
84757;SDS011;74981;52.476;16.656;2024-02-16T17:29:11;24.90;;;12.00;;
84757;SDS011;74981;52.476;16.656;2024-02-16T17:34:13;22.50;;;11.60;;
84757;SDS011;74981;52.476;16.656;2024-02-16T17:39:15;18.50;;;9.80;;
84757;SDS011;74981;52.476;16.656;2024-02-16T17:44:18;19.70;;;10.40;;
84757;SDS011;74981;52.476;16.656;2024-02-16T17:49:21;15.20;;;8.50;;
84757;SDS011;74981;52.476;16.656;2024-02-16T17:54:23;11.60;;;6.90;;
84757;SDS011;74981;52.476;16.656;2024-02-16T17:59:25;14.70;;;8.10;;
84757;SDS011;74981;52.476;16.656;2024-02-16T18:04:28;10.70;;;6.40;;
84757;SDS011;74981;52.476;16.656;2024-02-16T18:09:31;13.90;;;7.90;;
84757;SDS011;74981;52.476;16.656;2024-02-16T18:14:33;14.20;;;7.90;;
84757;SDS011;74981;52.476;16.656;2024-02-16T18:19:37;15.60;;;7.70;;
84757;SDS011;74981;52.476;16.656;2024-02-16T18:24:40;14.00;;;9.00;;
84757;SDS011;74981;52.476;16.656;2024-02-16T18:29:42;14.30;;;8.10;;
84757;SDS011;74981;52.476;16.656;2024-02-16T18:34:44;17.70;;;9.60;;
84757;SDS011;74981;52.476;16.656;2024-02-16T18:39:47;19.70;;;9.70;;
84757;SDS011;74981;52.476;16.656;2024-02-16T18:44:49;18.70;;;10.20;;
84757;SDS011;74981;52.476;16.656;2024-02-16T18:55:02;14.40;;;8.20;;
84757;SDS011;74981;52.476;16.656;2024-02-16T19:00:07;18.50;;;11.00;;
84757;SDS011;74981;52.476;16.656;2024-02-16T19:10:12;16.00;;;9.40;;
84757;SDS011;74981;52.476;16.656;2024-02-16T19:15:15;15.40;;;9.50;;
84757;SDS011;74981;52.476;16.656;2024-02-16T19:20:17;20.90;;;10.90;;
84757;SDS011;74981;52.476;16.656;2024-02-16T19:25:19;19.00;;;9.90;;
84757;SDS011;74981;52.476;16.656;2024-02-16T19:30:21;18.80;;;10.40;;
84757;SDS011;74981;52.476;16.656;2024-02-16T19:35:24;19.10;;;9.50;;
84757;SDS011;74981;52.476;16.656;2024-02-16T19:40:26;18.10;;;10.90;;
84757;SDS011;74981;52.476;16.656;2024-02-16T19:45:29;24.40;;;13.30;;
84757;SDS011;74981;52.476;16.656;2024-02-16T19:50:31;23.40;;;10.30;;
84757;SDS011;74981;52.476;16.656;2024-02-16T19:55:33;16.90;;;10.00;;
84757;SDS011;74981;52.476;16.656;2024-02-16T20:00:35;19.20;;;10.70;;
84757;SDS011;74981;52.476;16.656;2024-02-16T20:05:38;18.00;;;10.00;;
84757;SDS011;74981;52.476;16.656;2024-02-16T20:10:40;22.60;;;12.80;;
84757;SDS011;74981;52.476;16.656;2024-02-16T20:15:42;23.30;;;13.00;;
84757;SDS011;74981;52.476;16.656;2024-02-16T20:20:44;19.80;;;11.80;;
84757;SDS011;74981;52.476;16.656;2024-02-16T20:25:47;19.70;;;10.00;;
84757;SDS011;74981;52.476;16.656;2024-02-16T20:30:49;16.90;;;10.10;;
84757;SDS011;74981;52.476;16.656;2024-02-16T20:35:52;20.40;;;11.90;;
84757;SDS011;74981;52.476;16.656;2024-02-16T20:40:55;21.90;;;11.10;;
84757;SDS011;74981;52.476;16.656;2024-02-16T20:45:57;19.70;;;9.80;;
84757;SDS011;74981;52.476;16.656;2024-02-16T20:51:00;21.70;;;11.90;;
84757;SDS011;74981;52.476;16.656;2024-02-16T20:56:02;20.10;;;12.10;;
84757;SDS011;74981;52.476;16.656;2024-02-16T21:01:06;21.10;;;10.70;;
84757;SDS011;74981;52.476;16.656;2024-02-16T21:06:08;21.00;;;12.50;;
84757;SDS011;74981;52.476;16.656;2024-02-16T21:11:11;18.70;;;10.40;;
84757;SDS011;74981;52.476;16.656;2024-02-16T21:16:13;17.30;;;10.50;;
84757;SDS011;74981;52.476;16.656;2024-02-16T21:21:16;16.20;;;9.20;;
84757;SDS011;74981;52.476;16.656;2024-02-16T21:26:18;24.90;;;12.30;;
84757;SDS011;74981;52.476;16.656;2024-02-16T21:31:20;23.10;;;11.80;;
84757;SDS011;74981;52.476;16.656;2024-02-16T21:36:23;16.60;;;9.90;;
84757;SDS011;74981;52.476;16.656;2024-02-16T21:41:25;15.20;;;9.50;;
84757;SDS011;74981;52.476;16.656;2024-02-16T21:46:28;16.10;;;8.60;;
84757;SDS011;74981;52.476;16.656;2024-02-16T21:51:31;17.10;;;9.40;;
84757;SDS011;74981;52.476;16.656;2024-02-16T21:56:35;19.10;;;10.90;;
84757;SDS011;74981;52.476;16.656;2024-02-16T22:01:37;14.20;;;8.40;;
84757;SDS011;74981;52.476;16.656;2024-02-16T22:06:39;14.20;;;8.40;;
84757;SDS011;74981;52.476;16.656;2024-02-16T22:11:42;12.60;;;7.90;;
84757;SDS011;74981;52.476;16.656;2024-02-16T22:16:45;13.80;;;8.90;;
84757;SDS011;74981;52.476;16.656;2024-02-16T22:21:47;14.40;;;10.10;;
84757;SDS011;74981;52.476;16.656;2024-02-16T22:26:50;12.40;;;8.00;;
84757;SDS011;74981;52.476;16.656;2024-02-16T22:31:52;15.10;;;8.70;;
84757;SDS011;74981;52.476;16.656;2024-02-16T22:36:54;13.40;;;7.80;;
84757;SDS011;74981;52.476;16.656;2024-02-16T22:41:56;13.40;;;8.60;;
84757;SDS011;74981;52.476;16.656;2024-02-16T22:46:59;14.00;;;8.30;;
84757;SDS011;74981;52.476;16.656;2024-02-16T22:52:01;13.40;;;8.80;;
84757;SDS011;74981;52.476;16.656;2024-02-16T22:57:04;14.40;;;7.70;;
84757;SDS011;74981;52.476;16.656;2024-02-16T23:02:06;15.60;;;8.80;;
84757;SDS011;74981;52.476;16.656;2024-02-16T23:07:08;14.90;;;8.50;;
84757;SDS011;74981;52.476;16.656;2024-02-16T23:12:11;13.40;;;7.70;;
84757;SDS011;74981;52.476;16.656;2024-02-16T23:17:13;16.50;;;9.70;;
84757;SDS011;74981;52.476;16.656;2024-02-16T23:22:15;14.40;;;9.00;;
84757;SDS011;74981;52.476;16.656;2024-02-16T23:27:17;12.80;;;8.10;;
84757;SDS011;74981;52.476;16.656;2024-02-16T23:32:20;15.40;;;8.30;;
84757;SDS011;74981;52.476;16.656;2024-02-16T23:37:22;11.20;;;7.00;;
84757;SDS011;74981;52.476;16.656;2024-02-16T23:42:24;14.80;;;8.80;;
84757;SDS011;74981;52.476;16.656;2024-02-16T23:47:27;17.40;;;9.20;;
84757;SDS011;74981;52.476;16.656;2024-02-16T23:52:29;14.30;;;8.00;;
84757;SDS011;74981;52.476;16.656;2024-02-16T23:57:31;13.20;;;7.90;;
